createdAt,value
2022-09-17T00:00:38.698Z,97854.69
2022-09-17T00:03:57.273Z,97839.78
2022-09-17T00:07:11.170Z,97839.16
2022-09-17T00:10:27.289Z,97834.87
2022-09-17T00:13:41.111Z,97833.23
2022-09-17T00:16:59.946Z,97823.84
2022-09-17T00:20:13.962Z,97824.87
2022-09-17T00:23:28.345Z,97831.02
2022-09-17T00:26:42.734Z,97827.73
2022-09-17T00:29:57.081Z,97826.72
2022-09-17T00:33:10.584Z,97831.84
2022-09-17T00:36:24.234Z,97836.36
2022-09-17T00:39:37.959Z,97835.36
2022-09-17T00:42:53.664Z,97840.67
2022-09-17T00:46:07.449Z,97844.55
2022-09-17T00:49:23.913Z,97845.58
2022-09-17T00:52:40.869Z,97842.92
2022-09-17T00:55:57.631Z,97830.86
2022-09-17T00:59:11.941Z,97829.04
2022-09-17T01:02:26.451Z,97832.28
2022-09-17T01:05:44.040Z,97834.75
2022-09-17T01:09:06.370Z,97824.32
2022-09-17T01:12:52.295Z,97817.59
2022-09-17T01:16:10.346Z,97820.67
2022-09-17T01:19:46.338Z,97818.02
2022-09-17T01:23:08.260Z,97827.83
2022-09-17T01:26:35.828Z,97829.27
2022-09-17T01:30:00.707Z,97829.27
2022-09-17T01:33:18.880Z,97829.67
2022-09-17T01:36:41.526Z,97833.16
2022-09-17T01:39:58.122Z,97829.50
2022-09-17T01:43:13.990Z,97837.45
2022-09-17T01:46:29.889Z,97835.44
2022-09-17T01:49:45.298Z,97845.22
2022-09-17T01:53:00.876Z,97843.58
2022-09-17T01:56:17.503Z,97840.73
2022-09-17T01:59:36.998Z,97836.42
2022-09-17T02:02:53.332Z,97831.09
2022-09-17T02:06:09.968Z,97832.11
2022-09-17T02:09:26.822Z,97834.34
2022-09-17T02:12:42.717Z,97840.27
2022-09-17T02:15:59.548Z,97837.00
2022-09-17T02:19:16.290Z,97832.92
2022-09-17T02:22:33.577Z,97828.84
2022-09-17T02:25:50.083Z,97829.64
2022-09-17T02:29:06.858Z,97834.73
2022-09-17T02:32:21.255Z,97841.88
2022-09-17T02:35:35.079Z,97846.97
2022-09-17T02:38:51.658Z,97852.89
2022-09-17T02:42:11.465Z,97848.39
2022-09-17T02:45:28.596Z,97841.49
2022-09-17T02:49:04.285Z,97834.17
2022-09-17T02:52:22.706Z,97838.84
2022-09-17T02:55:40.927Z,97824.98
2022-09-17T02:58:58.765Z,97824.16
2022-09-17T03:02:14.696Z,97824.98
2022-09-17T03:05:29.520Z,97821.33
2022-09-17T03:08:45.799Z,97808.47
2022-09-17T03:11:59.492Z,97817.05
2022-09-17T03:15:14.909Z,97802.14
2022-09-17T03:18:28.750Z,97800.71
2022-09-17T03:21:42.428Z,97799.08
2022-09-17T03:24:56.059Z,97807.23
2022-09-17T03:28:10.033Z,97805.19
2022-09-17T03:31:23.530Z,97802.53
2022-09-17T03:34:37.199Z,97806.61
2022-09-17T03:37:50.647Z,97796.61
2022-09-17T03:41:08.981Z,97801.28
2022-09-17T03:44:24.428Z,97796.19
2022-09-17T03:47:38.053Z,97803.70
2022-09-17T03:50:51.983Z,97804.88
2022-09-17T03:54:05.581Z,97801.61
2022-09-17T03:57:19.197Z,97790.63
2022-09-17T04:00:34.845Z,97796.73
2022-09-17T04:03:48.461Z,97790.80
2022-09-17T04:07:07.882Z,97784.70
2022-09-17T04:10:40.971Z,97788.15
2022-09-17T04:13:54.578Z,97782.44
2022-09-17T04:17:08.499Z,97776.92
2022-09-17T04:20:22.142Z,97771.20
2022-09-17T04:23:35.704Z,97773.66
2022-09-17T04:26:49.326Z,97775.50
2022-09-17T04:30:02.969Z,97778.52
2022-09-17T04:33:16.825Z,97780.58
2022-09-17T04:36:30.451Z,97789.94
2022-09-17T04:39:43.934Z,97779.73
2022-09-17T04:43:00.005Z,97793.80
2022-09-17T04:46:14.775Z,97796.61
2022-09-17T04:49:30.388Z,97799.27
2022-09-17T04:52:45.405Z,97798.45
2022-09-17T04:55:59.122Z,97793.97
2022-09-17T04:59:12.868Z,97786.23
2022-09-17T05:02:26.351Z,97788.67
2022-09-17T05:05:40.236Z,97777.13
2022-09-17T05:08:53.835Z,97773.06
2022-09-17T05:12:07.734Z,97770.22
2022-09-17T05:15:21.365Z,97775.92
2022-09-17T05:18:34.872Z,97781.44
2022-09-17T05:21:48.511Z,97781.48
2022-09-17T05:25:02.086Z,97794.55
2022-09-17T05:28:16.567Z,97793.75
2022-09-17T05:31:32.577Z,97778.91
2022-09-17T05:34:46.303Z,97771.98
2022-09-17T05:38:03.835Z,97773.01
2022-09-17T05:41:17.627Z,97770.17
2022-09-17T05:44:31.616Z,97764.25
2022-09-17T05:47:45.188Z,97770.55
2022-09-17T05:50:58.802Z,97777.49
2022-09-17T05:54:13.038Z,97791.78
2022-09-17T05:57:26.731Z,97806.46
2022-09-17T06:00:43.289Z,97794.19
2022-09-17T06:03:59.630Z,97788.66
2022-09-17T06:07:13.817Z,97796.18
2022-09-17T06:10:27.839Z,97801.45
2022-09-17T06:13:44.166Z,97800.80
2022-09-17T06:16:57.746Z,97784.44
2022-09-17T06:20:12.543Z,97783.99
2022-09-17T06:23:29.283Z,97785.79
2022-09-17T06:26:42.888Z,97791.45
2022-09-17T06:29:56.497Z,97781.34
2022-09-17T06:33:10.035Z,97781.89
2022-09-17T06:36:28.059Z,97793.63
2022-09-17T06:39:47.084Z,97804.17
2022-09-17T06:43:03.952Z,97805.13
2022-09-17T06:46:18.504Z,97799.48
2022-09-17T06:49:35.899Z,97799.23
2022-09-17T06:52:56.977Z,97796.95
2022-09-17T06:56:13.325Z,97798.52
2022-09-17T06:59:28.857Z,97798.66
2022-09-17T07:02:45.166Z,97802.50
2022-09-17T07:05:59.124Z,97798.23
2022-09-17T07:09:13.303Z,97793.11
2022-09-17T07:12:29.051Z,97795.84
2022-09-17T07:15:42.636Z,97810.48
2022-09-17T07:18:56.561Z,97805.92
2022-09-17T07:22:10.490Z,97798.77
2022-09-17T07:25:25.173Z,97813.09
2022-09-17T07:28:39.389Z,97809.70
2022-09-17T07:31:53.141Z,97821.25
2022-09-17T07:35:06.735Z,97823.41
2022-09-17T07:38:20.707Z,97837.61
2022-09-17T07:41:35.087Z,97836.42
2022-09-17T07:44:52.009Z,97861.25
2022-09-17T07:48:05.651Z,97862.11
2022-09-17T07:51:25.097Z,97859.13
2022-09-17T07:54:39.111Z,97856.73
2022-09-17T07:57:58.051Z,97856.44
2022-09-17T08:01:13.770Z,97852.50
2022-09-17T08:04:27.799Z,97850.67
2022-09-17T08:07:42.238Z,97852.88
2022-09-17T08:10:56.167Z,97839.78
2022-09-17T08:14:09.743Z,97836.52
2022-09-17T08:17:23.340Z,97827.25
2022-09-17T08:20:36.845Z,97828.63
2022-09-17T08:23:50.962Z,97832.81
2022-09-17T08:27:04.713Z,97827.38
2022-09-17T08:30:18.967Z,97830.88
2022-09-17T08:33:33.067Z,97832.53
2022-09-17T08:36:46.675Z,97837.00
2022-09-17T08:40:00.308Z,97830.95
2022-09-17T08:43:17.781Z,97831.88
2022-09-17T08:46:32.610Z,97827.73
2022-09-17T08:49:49.858Z,97836.56
2022-09-17T08:53:24.851Z,97837.88
2022-09-17T08:56:40.104Z,97844.18
2022-09-17T08:59:58.117Z,97840.91
2022-09-17T09:03:19.542Z,97830.90
2022-09-17T09:06:35.960Z,97825.56
2022-09-17T09:09:52.301Z,97823.57
2022-09-17T09:13:07.798Z,97820.00
2022-09-17T09:16:24.347Z,97816.16
2022-09-17T09:19:41.388Z,97805.47
2022-09-17T09:22:57.866Z,97809.38
2022-09-17T09:26:16.739Z,97801.10
2022-09-17T09:29:33.908Z,97816.63
2022-09-17T09:32:55.274Z,97825.22
2022-09-17T09:36:09.771Z,97837.20
2022-09-17T09:39:25.946Z,97842.89
2022-09-17T09:42:41.171Z,97833.48
2022-09-17T09:46:15.424Z,97845.39
2022-09-17T09:49:38.055Z,97846.92
2022-09-17T09:53:00.386Z,97844.25
2022-09-17T09:56:34.900Z,97839.36
2022-09-17T09:59:48.517Z,97842.17
2022-09-17T10:03:06.991Z,97849.34
2022-09-17T10:06:21.661Z,97862.25
2022-09-17T10:09:35.915Z,97861.45
2022-09-17T10:12:49.376Z,97862.25
2022-09-17T10:16:03.032Z,97862.04
2022-09-17T10:19:26.104Z,97856.22
2022-09-17T10:22:41.539Z,97857.61
2022-09-17T10:25:56.404Z,97849.28
2022-09-17T10:29:11.146Z,97860.41
2022-09-17T10:32:28.220Z,97855.20
2022-09-17T10:35:41.787Z,97856.46
2022-09-17T10:38:55.487Z,97855.77
2022-09-17T10:42:10.861Z,97850.04
2022-09-17T10:45:30.826Z,97856.88
2022-09-17T10:48:49.011Z,97860.71
2022-09-17T10:52:14.295Z,97862.80
2022-09-17T10:55:34.050Z,97855.68
2022-09-17T10:58:56.270Z,97850.92
2022-09-17T11:02:15.207Z,97853.59
2022-09-17T11:05:39.065Z,97842.11
2022-09-17T11:08:58.324Z,97851.27
2022-09-17T11:12:28.703Z,97854.19
2022-09-17T11:15:59.953Z,97863.24
2022-09-17T11:19:19.328Z,97855.81
2022-09-17T11:22:37.253Z,97856.61
2022-09-17T11:25:59.837Z,97858.24
2022-09-17T11:29:18.890Z,97857.20
2022-09-17T11:32:44.392Z,97853.02
2022-09-17T11:36:01.234Z,97855.73
2022-09-17T11:39:19.259Z,97853.64
2022-09-17T11:42:36.913Z,97857.36
2022-09-17T11:45:54.792Z,97860.03
2022-09-17T11:49:13.159Z,97872.94
2022-09-17T11:52:30.043Z,97877.47
2022-09-17T11:55:47.743Z,97884.67
2022-09-17T11:59:03.722Z,97879.22
2022-09-17T12:02:23.006Z,97870.50
2022-09-17T12:05:39.305Z,97856.25
2022-09-17T12:08:57.215Z,97861.82
2022-09-17T12:12:37.772Z,97855.30
2022-09-17T12:15:35.618Z,97858.30
2022-09-17T12:18:57.443Z,97848.19
2022-09-17T12:26:09.462Z,97838.53
2022-09-17T12:29:30.636Z,97841.19
2022-09-17T12:33:05.754Z,97829.01
2022-09-17T12:36:41.856Z,97820.09
2022-09-17T12:40:04.026Z,97814.95
2022-09-17T12:43:34.544Z,97802.45
2022-09-17T12:47:05.159Z,97793.19
2022-09-17T12:50:27.706Z,97797.84
2022-09-17T12:53:45.327Z,97796.68
2022-09-17T12:57:04.012Z,97785.09
2022-09-17T13:00:22.257Z,97782.98
2022-09-17T13:03:40.746Z,97778.80
2022-09-17T13:07:11.649Z,97778.13
2022-09-17T13:10:52.583Z,97772.78
2022-09-17T13:14:09.844Z,97764.20
2022-09-17T13:17:26.475Z,97763.98
2022-09-17T13:20:44.179Z,97774.98
2022-09-17T13:24:00.669Z,97772.67
2022-09-17T13:27:20.491Z,97770.12
2022-09-17T13:30:37.844Z,97783.10
2022-09-17T13:34:02.553Z,97787.73
2022-09-17T13:37:25.142Z,97780.44
2022-09-17T13:40:40.649Z,97793.19
2022-09-17T13:43:56.662Z,97796.09
2022-09-17T13:47:19.470Z,97783.31
2022-09-17T13:50:40.665Z,97781.83
2022-09-17T13:54:12.578Z,97770.33
2022-09-17T13:57:29.102Z,97764.77
2022-09-17T14:01:04.423Z,97770.57
2022-09-17T14:04:35.704Z,97764.77
2022-09-17T14:07:56.720Z,97768.82
2022-09-17T14:11:27.555Z,97762.69
2022-09-17T14:14:56.658Z,97732.77
2022-09-17T14:18:14.269Z,97726.39
2022-09-17T14:21:34.863Z,97721.88
2022-09-17T14:24:55.047Z,97736.37
2022-09-17T14:28:12.073Z,97741.47
2022-09-17T14:31:27.771Z,97744.81
2022-09-17T14:34:43.770Z,97755.96
2022-09-17T14:38:03.938Z,97739.37
2022-09-17T14:41:25.765Z,97735.88
2022-09-17T14:44:40.097Z,97744.71
2022-09-17T14:47:54.792Z,97745.27
2022-09-17T14:51:33.755Z,97747.38
2022-09-17T14:54:48.642Z,97746.22
2022-09-17T14:58:05.492Z,97750.48
2022-09-17T15:01:28.997Z,97751.31
2022-09-17T15:04:42.691Z,97744.68
2022-09-17T15:08:00.705Z,97737.52
2022-09-17T15:11:21.917Z,97729.88
2022-09-17T15:14:37.288Z,97719.65
2022-09-17T15:17:51.284Z,97707.48
2022-09-17T15:21:06.404Z,97716.16
2022-09-17T15:24:24.227Z,97713.05
2022-09-17T15:27:39.930Z,97708.28
2022-09-17T15:30:56.999Z,97725.91
2022-09-17T15:34:10.728Z,97724.52
2022-09-17T15:37:28.289Z,97729.05
2022-09-17T15:40:44.632Z,97720.69
2022-09-17T15:44:13.212Z,97724.51
2022-09-17T15:47:51.309Z,97731.91
2022-09-17T15:51:07.578Z,97740.34
2022-09-17T15:54:36.049Z,97735.92
2022-09-17T15:57:51.499Z,97741.48
2022-09-17T16:01:40.692Z,97742.76
2022-09-17T16:04:55.775Z,97744.03
2022-09-17T16:08:24.484Z,97747.16
2022-09-17T16:11:41.064Z,97747.83
2022-09-17T16:14:57.726Z,97748.73
2022-09-17T16:18:18.392Z,97753.23
2022-09-17T16:21:32.788Z,97755.20
2022-09-17T16:24:49.057Z,97753.57
2022-09-17T16:28:05.282Z,97753.20
2022-09-17T16:31:21.726Z,97756.09
2022-09-17T16:34:35.554Z,97755.87
2022-09-17T16:37:49.371Z,97759.20
2022-09-17T16:41:03.032Z,97765.78
2022-09-17T16:44:18.771Z,97749.21
2022-09-17T16:47:38.073Z,97745.59
2022-09-17T16:50:52.153Z,97735.23
2022-09-17T16:54:05.982Z,97729.47
2022-09-17T16:57:19.762Z,97735.46
2022-09-17T17:00:33.533Z,97737.98
2022-09-17T17:03:49.711Z,97732.53
2022-09-17T17:07:07.799Z,97729.36
2022-09-17T17:10:27.056Z,97715.31
2022-09-17T17:13:41.680Z,97703.03
2022-09-17T17:16:55.244Z,97707.33
2022-09-17T17:20:13.209Z,97711.39
2022-09-17T17:23:27.998Z,97704.80
2022-09-17T17:26:42.049Z,97713.02
2022-09-17T17:30:04.635Z,97723.72
2022-09-17T17:33:18.599Z,97722.55
2022-09-17T17:36:38.527Z,97721.15
2022-09-17T17:39:56.055Z,97711.99
2022-09-17T17:43:17.139Z,97705.27
2022-09-17T17:46:32.612Z,97704.44
2022-09-17T17:49:49.371Z,97705.55
2022-09-17T17:53:05.029Z,97696.98
2022-09-17T17:56:20.566Z,97710.08
2022-09-17T17:59:36.810Z,97709.84
2022-09-17T18:02:50.906Z,97701.87
2022-09-17T18:06:07.779Z,97715.17
2022-09-17T18:09:38.593Z,97709.25
2022-09-17T18:12:57.858Z,97712.94
2022-09-17T18:16:13.696Z,97707.05
2022-09-17T18:19:30.272Z,97710.88
2022-09-17T18:22:49.641Z,97717.08
2022-09-17T18:26:08.925Z,97721.65
2022-09-17T18:29:27.750Z,97709.61
2022-09-17T18:32:44.678Z,97708.05
2022-09-17T18:36:00.072Z,97713.00
2022-09-17T18:39:53.282Z,97715.05
2022-09-17T18:42:33.038Z,97718.31
2022-09-17T18:45:47.289Z,97730.35
2022-09-17T18:49:02.378Z,97738.94
2022-09-17T18:52:16.464Z,97739.59
2022-09-17T18:55:31.042Z,97741.06
2022-09-17T18:58:44.758Z,97731.23
2022-09-17T19:01:59.133Z,97725.91
2022-09-17T19:05:14.063Z,97729.83
2022-09-17T19:08:32.470Z,97717.36
2022-09-17T19:11:46.486Z,97723.10
2022-09-17T19:15:00.338Z,97714.90
2022-09-17T19:18:14.545Z,97713.49
2022-09-17T19:21:39.095Z,97713.30
2022-09-17T19:25:02.873Z,97707.00
2022-09-17T19:28:22.011Z,97712.73
2022-09-17T19:31:50.583Z,97706.84
2022-09-17T19:35:05.324Z,97709.73
2022-09-17T19:38:25.880Z,97708.09
2022-09-17T19:41:43.953Z,97704.61
2022-09-17T19:45:00.974Z,97706.84
2022-09-17T19:48:15.122Z,97710.45
2022-09-17T19:51:33.148Z,97700.42
2022-09-17T19:54:52.086Z,97698.38
2022-09-17T19:58:15.250Z,97692.23
2022-09-17T20:01:34.082Z,97693.25
2022-09-17T20:04:51.434Z,97701.03
2022-09-17T20:08:05.263Z,97706.50
2022-09-17T20:11:19.828Z,97708.70
2022-09-17T20:14:33.979Z,97710.19
2022-09-17T20:17:48.148Z,97715.28
2022-09-17T20:21:07.102Z,97714.02
2022-09-17T20:24:23.973Z,97695.64
2022-09-17T20:27:37.993Z,97698.90
2022-09-17T20:30:55.067Z,97690.70
2022-09-17T20:34:12.139Z,97691.72
2022-09-17T20:38:12.314Z,97685.00
2022-09-17T20:40:51.636Z,97678.05
2022-09-17T20:44:05.343Z,97679.31
2022-09-17T20:47:20.904Z,97683.38
2022-09-17T20:50:38.948Z,97688.69
2022-09-17T20:53:54.293Z,97685.00
2022-09-17T20:57:12.378Z,97688.31
2022-09-17T21:00:29.542Z,97688.92
2022-09-17T21:03:52.335Z,97689.72
2022-09-17T21:07:06.285Z,97681.39
2022-09-17T21:10:30.313Z,97686.71
2022-09-17T21:13:44.573Z,97684.25
2022-09-17T21:17:01.654Z,97680.19
2022-09-17T21:20:17.759Z,97683.88
2022-09-17T21:23:32.682Z,97673.23
2022-09-17T21:26:51.516Z,97667.13
2022-09-17T21:30:07.565Z,97667.77
2022-09-17T21:33:27.104Z,97669.63
2022-09-17T21:36:43.947Z,97670.81
2022-09-17T21:40:03.027Z,97669.63
2022-09-17T21:43:16.710Z,97677.38
2022-09-17T21:46:31.823Z,97680.41
2022-09-17T21:49:45.531Z,97679.16
2022-09-17T21:52:59.069Z,97679.02
2022-09-17T21:56:15.359Z,97681.29
2022-09-17T21:59:28.818Z,97679.28
2022-09-17T22:02:42.338Z,97677.23
2022-09-17T22:05:56.168Z,97683.72
2022-09-17T22:09:11.622Z,97688.81
2022-09-17T22:12:25.487Z,97686.61
2022-09-17T22:15:39.102Z,97677.00
2022-09-17T22:18:54.270Z,97678.41
2022-09-17T22:22:07.704Z,97684.33
2022-09-17T22:25:21.640Z,97687.78
2022-09-17T22:28:36.286Z,97686.34
2022-09-17T22:31:51.765Z,97677.98
2022-09-17T22:35:05.284Z,97683.72
2022-09-17T22:38:18.772Z,97682.92
2022-09-17T22:41:33.835Z,97682.77
2022-09-17T22:44:47.332Z,97683.80
2022-09-17T22:48:00.911Z,97689.48
2022-09-17T22:51:15.132Z,97685.20
2022-09-17T22:54:28.630Z,97693.83
2022-09-17T22:57:42.345Z,97692.80
2022-09-17T23:00:55.880Z,97694.58
2022-09-17T23:04:10.126Z,97694.20
2022-09-17T23:07:23.679Z,97688.28
2022-09-17T23:10:37.281Z,97685.63
2022-09-17T23:13:50.994Z,97680.61
2022-09-17T23:17:04.586Z,97674.75
2022-09-17T23:20:19.801Z,97673.36
2022-09-17T23:23:33.259Z,97671.38
2022-09-17T23:26:46.921Z,97672.02
2022-09-17T23:30:00.453Z,97668.33
2022-09-17T23:33:14.213Z,97668.91
2022-09-17T23:36:29.265Z,97662.19
2022-09-17T23:39:42.815Z,97656.08
2022-09-17T23:42:56.294Z,97650.80
2022-09-17T23:46:10.244Z,97652.23
2022-09-17T23:49:23.683Z,97650.00
2022-09-17T23:52:37.194Z,97647.41
2022-09-17T23:55:55.301Z,97647.41
2022-09-17T23:59:10.263Z,97641.48
